createdAt,value
2024-02-27T00:01:36.952Z,18.40
2024-02-27T00:04:05.369Z,17.85
2024-02-27T00:06:33.397Z,18.65
2024-02-27T00:09:04.142Z,17.75
2024-02-27T00:11:32.027Z,18.77
2024-02-27T00:13:59.886Z,21.25
2024-02-27T00:16:27.691Z,17.00
2024-02-27T00:18:55.677Z,19.10
2024-02-27T00:21:23.603Z,19.77
2024-02-27T00:23:51.390Z,17.73
2024-02-27T00:26:20.503Z,18.40
2024-02-27T00:28:48.329Z,18.73
2024-02-27T00:31:16.851Z,17.20
2024-02-27T00:33:44.844Z,18.58
2024-02-27T00:36:12.818Z,19.23
2024-02-27T00:38:40.738Z,18.70
2024-02-27T00:41:08.836Z,17.73
2024-02-27T00:43:38.008Z,21.63
2024-02-27T00:46:05.961Z,19.10
2024-02-27T00:48:35.729Z,19.27
2024-02-27T00:51:03.864Z,18.40
2024-02-27T00:53:31.914Z,18.75
2024-02-27T00:55:59.719Z,18.27
2024-02-27T00:58:28.616Z,19.15
2024-02-27T01:00:57.982Z,18.27
2024-02-27T01:03:25.859Z,16.73
2024-02-27T01:05:54.084Z,20.63
2024-02-27T01:08:21.954Z,19.98
2024-02-27T01:10:49.793Z,20.55
2024-02-27T01:13:17.631Z,19.33
2024-02-27T01:15:45.440Z,19.00
2024-02-27T01:18:14.647Z,19.30
2024-02-27T01:20:42.502Z,18.92
2024-02-27T01:23:10.409Z,18.42
2024-02-27T01:25:38.335Z,18.17
2024-02-27T01:28:07.275Z,19.05
2024-02-27T01:30:35.168Z,18.75
2024-02-27T01:33:03.336Z,19.77
2024-02-27T01:35:32.790Z,17.65
2024-02-27T01:38:00.657Z,18.30
2024-02-27T01:40:28.377Z,18.90
2024-02-27T01:42:56.286Z,21.95
2024-02-27T01:45:26.286Z,19.70
2024-02-27T01:47:55.709Z,19.83
2024-02-27T01:50:24.901Z,20.13
2024-02-27T01:52:54.665Z,19.08
2024-02-27T01:55:22.582Z,18.10
2024-02-27T01:57:51.106Z,17.52
2024-02-27T02:00:20.023Z,19.98
2024-02-27T02:02:48.002Z,18.93
2024-02-27T02:05:15.804Z,18.25
2024-02-27T02:07:43.925Z,19.38
2024-02-27T02:10:13.637Z,19.73
2024-02-27T02:12:41.782Z,19.23
2024-02-27T02:15:10.157Z,16.83
2024-02-27T02:17:37.971Z,18.23
2024-02-27T02:20:07.303Z,18.90
2024-02-27T02:22:36.616Z,23.25
2024-02-27T02:25:05.730Z,19.38
2024-02-27T02:27:33.992Z,22.37
2024-02-27T02:30:02.271Z,20.55
2024-02-27T02:32:30.139Z,18.67
2024-02-27T02:34:57.984Z,20.05
2024-02-27T02:37:27.638Z,20.23
2024-02-27T02:39:58.571Z,21.63
2024-02-27T02:42:26.477Z,16.90
2024-02-27T02:44:54.278Z,19.65
2024-02-27T02:47:22.050Z,19.40
2024-02-27T02:49:49.971Z,18.90
2024-02-27T02:52:18.146Z,20.00
2024-02-27T02:54:46.069Z,19.88
2024-02-27T02:57:15.347Z,20.88
2024-02-27T02:59:43.155Z,19.75
2024-02-27T03:02:10.960Z,20.27
2024-02-27T03:04:39.098Z,19.50
2024-02-27T03:07:08.001Z,19.63
2024-02-27T03:09:35.943Z,16.77
2024-02-27T03:12:04.048Z,18.38
2024-02-27T03:14:33.492Z,18.95
2024-02-27T03:17:02.248Z,19.03
2024-02-27T03:19:32.106Z,18.55
2024-02-27T03:22:00.019Z,17.67
2024-02-27T03:24:27.796Z,20.00
2024-02-27T03:26:55.584Z,17.88
2024-02-27T03:29:23.393Z,20.60
2024-02-27T03:31:52.553Z,18.65
2024-02-27T03:34:21.401Z,18.83
2024-02-27T03:36:49.299Z,18.80
2024-02-27T03:39:17.414Z,20.98
2024-02-27T03:41:45.257Z,19.03
2024-02-27T03:44:13.100Z,22.52
2024-02-27T03:46:40.943Z,18.85
2024-02-27T03:49:10.459Z,20.38
2024-02-27T03:51:38.373Z,20.27
2024-02-27T03:54:06.714Z,20.50
2024-02-27T03:56:34.580Z,19.50
2024-02-27T03:59:02.478Z,23.52
2024-02-27T04:01:30.434Z,21.25
2024-02-27T04:04:03.208Z,19.95
2024-02-27T04:06:32.494Z,21.50
2024-02-27T04:09:00.518Z,19.98
2024-02-27T04:11:28.449Z,22.25
2024-02-27T04:13:57.949Z,19.33
2024-02-27T04:16:25.819Z,21.48
2024-02-27T04:18:54.439Z,24.90
2024-02-27T04:21:22.676Z,21.10
2024-02-27T04:23:51.938Z,22.40
2024-02-27T04:26:19.930Z,23.05
2024-02-27T04:28:47.783Z,24.70
2024-02-27T04:31:15.667Z,23.27
2024-02-27T04:33:43.691Z,24.95
2024-02-27T04:36:12.325Z,24.17
2024-02-27T04:38:42.629Z,24.13
2024-02-27T04:41:11.941Z,24.13
2024-02-27T04:43:39.991Z,22.70
2024-02-27T04:46:07.739Z,18.08
2024-02-27T04:48:36.720Z,22.67
2024-02-27T04:51:05.155Z,21.25
2024-02-27T04:53:33.173Z,21.92
2024-02-27T04:56:01.287Z,21.00
2024-02-27T04:58:30.484Z,22.10
2024-02-27T05:00:58.381Z,24.55
2024-02-27T05:03:26.231Z,24.40
2024-02-27T05:05:54.117Z,24.88
2024-02-27T05:08:21.906Z,22.87
2024-02-27T05:10:49.711Z,22.00
2024-02-27T05:13:17.500Z,22.48
2024-02-27T05:15:47.090Z,23.92
2024-02-27T05:18:15.168Z,23.27
2024-02-27T05:20:43.088Z,20.33
2024-02-27T05:23:10.950Z,22.80
2024-02-27T05:25:38.982Z,19.38
2024-02-27T05:28:07.246Z,19.13
2024-02-27T05:30:35.010Z,22.88
2024-02-27T05:33:04.857Z,19.67
2024-02-27T05:35:32.959Z,22.92
2024-02-27T05:38:00.821Z,17.70
2024-02-27T05:40:28.627Z,19.38
2024-02-27T05:42:56.379Z,18.98
2024-02-27T05:45:24.198Z,19.93
2024-02-27T05:47:52.295Z,19.88
2024-02-27T05:50:21.721Z,21.73
2024-02-27T05:52:49.498Z,18.15
2024-02-27T05:55:17.433Z,20.90
2024-02-27T05:57:45.747Z,20.87
2024-02-27T06:00:15.551Z,19.02
2024-02-27T06:02:43.475Z,20.20
2024-02-27T06:05:11.307Z,18.08
2024-02-27T06:07:40.727Z,15.63
2024-02-27T06:10:09.604Z,18.47
2024-02-27T06:12:37.412Z,21.38
2024-02-27T06:15:06.465Z,20.95
2024-02-27T06:17:34.372Z,18.52
2024-02-27T06:20:05.254Z,16.48
2024-02-27T06:22:32.759Z,20.97
2024-02-27T06:25:01.841Z,18.10
2024-02-27T06:27:29.694Z,17.88
2024-02-27T06:29:57.634Z,19.10
2024-02-27T06:32:25.618Z,19.15
2024-02-27T06:34:53.617Z,19.37
2024-02-27T06:37:21.556Z,18.55
2024-02-27T06:39:49.738Z,19.52
2024-02-27T06:42:20.954Z,17.52
2024-02-27T06:44:48.959Z,17.25
2024-02-27T06:47:18.877Z,18.40
2024-02-27T06:49:46.824Z,18.85
2024-02-27T06:52:14.810Z,20.92
2024-02-27T06:54:43.442Z,17.65
2024-02-27T06:57:11.272Z,18.25
2024-02-27T06:59:40.456Z,17.73
2024-02-27T07:02:08.501Z,17.10
2024-02-27T07:04:36.475Z,18.63
2024-02-27T07:07:05.947Z,19.70
2024-02-27T07:09:34.095Z,19.35
2024-02-27T07:12:02.656Z,19.20
2024-02-27T07:14:30.908Z,20.05
2024-02-27T07:17:00.529Z,22.33
2024-02-27T07:19:28.686Z,17.40
2024-02-27T07:21:56.655Z,19.83
2024-02-27T07:24:25.526Z,18.47
2024-02-27T07:26:53.411Z,18.55
2024-02-27T07:29:21.991Z,18.58
2024-02-27T07:31:49.768Z,19.77
2024-02-27T07:34:19.509Z,16.27
2024-02-27T07:36:47.474Z,17.33
2024-02-27T07:39:16.761Z,20.13
2024-02-27T07:41:44.672Z,18.13
2024-02-27T07:44:12.880Z,19.55
2024-02-27T07:46:40.856Z,19.88
2024-02-27T07:49:08.901Z,17.97
2024-02-27T07:51:38.907Z,19.00
2024-02-27T07:54:07.189Z,18.27
2024-02-27T07:56:35.251Z,18.00
2024-02-27T07:59:03.630Z,19.30
2024-02-27T08:01:31.964Z,20.57
2024-02-27T08:04:00.106Z,19.08
2024-02-27T08:06:29.327Z,16.63
2024-02-27T08:08:58.764Z,17.70
2024-02-27T08:11:27.462Z,17.17
2024-02-27T08:13:55.461Z,20.43
2024-02-27T08:16:23.474Z,16.77
2024-02-27T08:18:51.385Z,17.67
2024-02-27T08:21:19.203Z,17.00
2024-02-27T08:23:46.985Z,18.30
2024-02-27T08:26:16.152Z,16.70
2024-02-27T08:28:44.081Z,15.68
2024-02-27T08:31:11.942Z,20.52
2024-02-27T08:33:40.021Z,17.35
2024-02-27T08:36:07.477Z,19.88
2024-02-27T08:38:35.517Z,16.93
2024-02-27T08:41:03.530Z,18.45
2024-02-27T08:43:33.532Z,18.83
2024-02-27T08:46:01.735Z,16.95
2024-02-27T08:48:29.740Z,18.52
2024-02-27T08:50:57.761Z,16.73
2024-02-27T08:53:25.525Z,15.55
2024-02-27T08:55:53.964Z,16.92
2024-02-27T08:58:21.777Z,19.92
2024-02-27T09:00:51.057Z,17.05
2024-02-27T09:03:19.157Z,16.73
2024-02-27T09:05:47.838Z,17.23
2024-02-27T09:08:17.849Z,16.85
2024-02-27T09:10:46.015Z,18.13
2024-02-27T09:13:14.445Z,16.40
2024-02-27T09:15:42.496Z,16.73
2024-02-27T09:18:11.831Z,17.08
2024-02-27T09:20:42.693Z,18.40
2024-02-27T09:23:10.492Z,17.20
2024-02-27T09:25:39.256Z,15.40
2024-02-27T09:28:07.766Z,16.60
2024-02-27T09:30:35.625Z,16.98
2024-02-27T09:33:03.514Z,16.10
2024-02-27T09:35:32.699Z,15.73
2024-02-27T09:37:59.743Z,15.70
2024-02-27T09:40:27.716Z,15.67
2024-02-27T09:43:00.700Z,18.20
2024-02-27T09:45:28.587Z,18.77
2024-02-27T09:47:59.403Z,14.55
2024-02-27T09:50:30.315Z,15.52
2024-02-27T09:53:01.469Z,14.97
2024-02-27T09:55:30.899Z,16.92
2024-02-27T09:58:00.515Z,15.82
2024-02-27T10:00:28.699Z,14.25
2024-02-27T10:02:57.716Z,12.93
2024-02-27T10:05:25.860Z,17.50
2024-02-27T10:07:53.914Z,14.93
2024-02-27T10:10:23.415Z,13.25
2024-02-27T10:12:51.479Z,13.38
2024-02-27T10:15:19.684Z,15.25
2024-02-27T10:17:48.113Z,13.33
2024-02-27T10:20:19.517Z,15.32
2024-02-27T10:22:47.798Z,13.95
2024-02-27T10:25:17.008Z,15.35
2024-02-27T10:27:46.721Z,12.95
2024-02-27T10:30:16.119Z,14.23
2024-02-27T10:32:45.502Z,16.13
2024-02-27T10:35:15.854Z,16.95
2024-02-27T10:37:45.874Z,15.13
2024-02-27T10:40:14.032Z,13.23
2024-02-27T10:42:42.445Z,13.73
2024-02-27T10:45:12.824Z,14.13
2024-02-27T10:47:46.289Z,12.57
2024-02-27T10:50:16.329Z,13.27
2024-02-27T10:52:46.063Z,14.20
2024-02-27T10:55:16.415Z,14.40
2024-02-27T10:57:45.218Z,15.30
2024-02-27T11:00:16.419Z,13.93
2024-02-27T11:02:50.338Z,13.40
2024-02-27T11:05:19.939Z,15.57
2024-02-27T11:07:48.932Z,14.67
2024-02-27T11:10:17.859Z,13.20
2024-02-27T11:12:49.617Z,15.52
2024-02-27T11:15:20.853Z,13.65
2024-02-27T11:17:55.766Z,15.75
2024-02-27T11:20:24.294Z,13.20
2024-02-27T11:22:53.515Z,11.55
2024-02-27T11:25:22.038Z,14.48
2024-02-27T11:27:54.823Z,15.43
2024-02-27T11:30:26.478Z,13.40
2024-02-27T11:32:54.477Z,12.20
2024-02-27T11:35:23.291Z,13.00
2024-02-27T11:37:51.191Z,12.43
2024-02-27T11:40:48.130Z,12.48
2024-02-27T11:43:17.371Z,12.52
2024-02-27T11:45:46.710Z,11.97
2024-02-27T11:48:15.170Z,11.73
2024-02-27T11:50:47.071Z,12.13
2024-02-27T11:53:39.077Z,14.10
2024-02-27T11:56:09.258Z,12.48
2024-02-27T11:58:37.033Z,11.70
2024-02-27T12:01:08.453Z,13.07
2024-02-27T12:03:36.816Z,12.40
2024-02-27T12:06:06.276Z,13.07
2024-02-27T12:08:34.609Z,12.50
2024-02-27T12:11:02.987Z,11.93
2024-02-27T12:13:31.488Z,14.15
2024-02-27T12:16:00.175Z,12.27
2024-02-27T12:18:29.564Z,12.98
2024-02-27T12:20:57.421Z,11.68
2024-02-27T12:23:25.234Z,13.97
2024-02-27T12:25:53.188Z,11.45
2024-02-27T12:28:21.040Z,10.05
2024-02-27T12:30:51.299Z,12.40
2024-02-27T12:33:19.592Z,12.57
2024-02-27T12:35:49.000Z,12.87
2024-02-27T12:38:16.752Z,12.32
2024-02-27T12:40:44.974Z,13.73
2024-02-27T12:43:12.931Z,12.38
2024-02-27T12:45:40.894Z,12.82
2024-02-27T12:48:09.369Z,12.83
2024-02-27T12:50:37.362Z,12.07
2024-02-27T12:53:12.486Z,12.45
2024-02-27T12:55:41.989Z,12.20
2024-02-27T12:58:09.765Z,12.93
2024-02-27T13:00:38.637Z,12.23
2024-02-27T13:03:06.866Z,12.70
2024-02-27T13:05:35.611Z,11.65
2024-02-27T13:08:07.697Z,13.75
2024-02-27T13:10:35.974Z,13.07
2024-02-27T13:13:11.492Z,13.30
2024-02-27T13:15:44.418Z,12.40
2024-02-27T13:18:13.884Z,13.85
2024-02-27T13:20:42.436Z,12.60
2024-02-27T13:23:21.248Z,12.20
2024-02-27T13:25:54.523Z,11.53
2024-02-27T13:28:23.152Z,10.82
2024-02-27T13:30:51.358Z,12.68
2024-02-27T13:33:19.524Z,12.27
2024-02-27T13:35:47.456Z,11.48
2024-02-27T13:38:16.580Z,12.53
2024-02-27T13:40:46.803Z,11.98
2024-02-27T13:43:15.978Z,11.95
2024-02-27T13:45:44.101Z,11.63
2024-02-27T13:48:12.577Z,12.27
2024-02-27T13:50:40.508Z,12.10
2024-02-27T13:53:13.259Z,11.75
2024-02-27T13:55:42.958Z,12.10
2024-02-27T13:58:11.122Z,12.13
2024-02-27T14:00:39.191Z,11.00
2024-02-27T14:03:10.037Z,11.37
2024-02-27T14:05:38.806Z,12.43
2024-02-27T14:08:07.670Z,12.50
2024-02-27T14:10:39.673Z,11.30
2024-02-27T14:13:09.719Z,12.13
2024-02-27T14:15:38.074Z,13.20
2024-02-27T14:18:06.832Z,11.57
2024-02-27T14:20:34.795Z,12.18
2024-02-27T14:23:02.689Z,11.80
2024-02-27T14:25:30.512Z,15.05
2024-02-27T14:27:59.580Z,13.33
2024-02-27T14:30:28.800Z,11.32
2024-02-27T14:32:56.872Z,13.43
2024-02-27T14:35:24.956Z,10.80
2024-02-27T14:37:52.823Z,13.60
2024-02-27T14:40:20.544Z,11.07
2024-02-27T14:42:49.727Z,12.45
2024-02-27T14:45:19.705Z,11.93
2024-02-27T14:47:51.328Z,11.93
2024-02-27T14:50:19.260Z,11.25
2024-02-27T14:52:47.104Z,12.10
2024-02-27T14:55:15.401Z,12.43
2024-02-27T14:57:43.387Z,12.93
2024-02-27T15:00:12.165Z,12.80
2024-02-27T15:02:40.037Z,12.38
2024-02-27T15:05:10.021Z,12.57
2024-02-27T15:07:38.791Z,12.40
2024-02-27T15:10:07.305Z,12.73
2024-02-27T15:12:35.110Z,14.38
2024-02-27T15:15:03.177Z,11.95
2024-02-27T15:17:31.091Z,11.60
2024-02-27T15:19:59.048Z,11.52
2024-02-27T15:22:28.717Z,11.48
2024-02-27T15:24:56.553Z,11.82
2024-02-27T15:27:24.541Z,12.50
2024-02-27T15:29:52.452Z,12.77
2024-02-27T15:32:20.213Z,11.93
2024-02-27T15:34:49.554Z,11.85
2024-02-27T15:37:17.450Z,11.40
2024-02-27T15:39:46.799Z,11.20
2024-02-27T15:42:14.927Z,13.80
2024-02-27T15:44:42.975Z,10.07
2024-02-27T15:47:10.798Z,10.82
2024-02-27T15:49:38.816Z,11.50
2024-02-27T15:52:07.509Z,14.27
2024-02-27T15:54:35.358Z,11.97
2024-02-27T15:57:05.081Z,13.60
2024-02-27T15:59:33.040Z,12.80
2024-02-27T16:02:01.804Z,13.23
2024-02-27T16:04:41.101Z,12.05
2024-02-27T16:07:13.637Z,11.60
2024-02-27T16:09:42.027Z,12.27
2024-02-27T16:12:18.709Z,14.10
2024-02-27T16:14:50.089Z,12.68
2024-02-27T16:17:18.486Z,13.30
2024-02-27T16:19:46.768Z,10.60
2024-02-27T16:22:14.962Z,12.50
2024-02-27T16:24:43.095Z,11.75
2024-02-27T16:27:12.382Z,12.52
2024-02-27T16:29:40.280Z,11.73
2024-02-27T16:32:08.557Z,12.83
2024-02-27T16:34:36.521Z,13.50
2024-02-27T16:37:05.080Z,13.35
2024-02-27T16:39:33.389Z,14.70
2024-02-27T16:42:01.465Z,12.40
2024-02-27T16:44:30.654Z,15.97
2024-02-27T16:46:58.454Z,12.15
2024-02-27T16:49:26.335Z,12.98
2024-02-27T16:51:54.546Z,11.63
2024-02-27T16:54:22.495Z,12.57
2024-02-27T16:56:50.494Z,13.87
2024-02-27T16:59:18.271Z,13.02
2024-02-27T17:01:47.725Z,14.38
2024-02-27T17:04:15.602Z,17.85
2024-02-27T17:06:44.797Z,13.25
2024-02-27T17:09:13.002Z,14.57
2024-02-27T17:11:41.067Z,14.02
2024-02-27T17:14:09.402Z,12.18
2024-02-27T17:16:37.217Z,13.70
2024-02-27T17:19:07.022Z,12.85
2024-02-27T17:21:35.014Z,12.67
2024-02-27T17:24:03.297Z,12.15
2024-02-27T17:26:31.162Z,12.00
2024-02-27T17:28:58.995Z,12.05
2024-02-27T17:31:28.949Z,12.30
2024-02-27T17:33:57.028Z,12.50
2024-02-27T17:36:26.363Z,12.98
2024-02-27T17:38:54.473Z,13.05
2024-02-27T17:41:22.309Z,12.80
2024-02-27T17:43:50.076Z,13.63
2024-02-27T17:46:17.848Z,14.30
2024-02-27T17:48:45.703Z,13.60
2024-02-27T17:51:13.570Z,12.25
2024-02-27T17:53:42.935Z,11.90
2024-02-27T17:56:13.800Z,13.20
2024-02-27T17:58:41.787Z,14.23
2024-02-27T18:01:09.824Z,13.18
2024-02-27T18:03:37.768Z,13.02
2024-02-27T18:06:06.114Z,12.55
2024-02-27T18:08:34.043Z,13.32
2024-02-27T18:11:04.514Z,14.27
2024-02-27T18:13:32.390Z,12.13
2024-02-27T18:16:00.206Z,15.43
2024-02-27T18:18:28.255Z,13.77
2024-02-27T18:20:56.192Z,14.45
2024-02-27T18:23:28.637Z,17.27
2024-02-27T18:25:56.441Z,13.73
2024-02-27T18:28:25.632Z,12.55
2024-02-27T18:30:55.854Z,14.10
2024-02-27T18:33:24.184Z,14.80
2024-02-27T18:35:53.626Z,12.00
2024-02-27T18:38:22.503Z,12.98
2024-02-27T18:40:50.365Z,12.05
2024-02-27T18:43:19.767Z,12.07
2024-02-27T18:45:49.016Z,11.63
2024-02-27T18:48:17.231Z,12.20
2024-02-27T18:50:45.079Z,13.27
2024-02-27T18:53:12.815Z,16.17
2024-02-27T18:55:40.837Z,17.40
2024-02-27T18:58:09.665Z,13.27
2024-02-27T19:00:37.811Z,14.87
2024-02-27T19:03:07.235Z,15.98
2024-02-27T19:05:35.271Z,14.43
2024-02-27T19:08:03.253Z,14.63
2024-02-27T19:10:31.319Z,14.40
2024-02-27T19:13:00.524Z,11.93
2024-02-27T19:15:28.420Z,14.23
2024-02-27T19:17:56.465Z,12.35
2024-02-27T19:20:25.706Z,13.80
2024-02-27T19:22:53.605Z,14.73
2024-02-27T19:25:21.393Z,15.27
2024-02-27T19:27:50.081Z,14.55
2024-02-27T19:30:18.678Z,15.38
2024-02-27T19:32:46.792Z,14.00
2024-02-27T19:35:14.958Z,13.88
2024-02-27T19:37:44.663Z,15.50
2024-02-27T19:40:13.731Z,14.23
2024-02-27T19:42:42.233Z,15.70
2024-02-27T19:45:12.910Z,15.40
2024-02-27T19:47:42.959Z,13.57
2024-02-27T19:50:14.626Z,14.13
2024-02-27T19:52:45.642Z,16.13
2024-02-27T19:55:13.531Z,16.48
2024-02-27T19:57:41.968Z,17.33
2024-02-27T20:00:10.638Z,13.63
2024-02-27T20:02:39.608Z,16.33
2024-02-27T20:05:08.651Z,15.18
2024-02-27T20:07:37.738Z,14.18
2024-02-27T20:10:08.975Z,12.45
2024-02-27T20:12:38.394Z,12.52
2024-02-27T20:15:07.601Z,17.80
2024-02-27T20:17:35.499Z,13.60
2024-02-27T20:20:04.128Z,15.15
2024-02-27T20:22:32.110Z,16.17
2024-02-27T20:25:00.517Z,15.48
2024-02-27T20:27:29.909Z,14.23
2024-02-27T20:30:00.176Z,16.40
2024-02-27T20:32:28.622Z,15.38
2024-02-27T20:34:56.364Z,16.10
2024-02-27T20:37:24.477Z,17.48
2024-02-27T20:39:52.630Z,18.47
2024-02-27T20:42:20.580Z,16.52
2024-02-27T20:44:50.114Z,16.73
2024-02-27T20:47:18.055Z,17.88
2024-02-27T20:49:45.831Z,13.50
2024-02-27T20:52:13.700Z,17.27
2024-02-27T20:54:41.548Z,18.20
2024-02-27T20:57:09.432Z,17.35
2024-02-27T20:59:37.466Z,15.23
2024-02-27T21:02:06.717Z,15.82
2024-02-27T21:04:34.767Z,18.10
2024-02-27T21:07:03.559Z,19.33
2024-02-27T21:09:31.612Z,16.15
2024-02-27T21:11:59.682Z,15.63
2024-02-27T21:14:27.488Z,16.73
2024-02-27T21:16:55.342Z,16.50
2024-02-27T21:19:24.753Z,15.80
2024-02-27T21:21:52.851Z,14.90
2024-02-27T21:24:21.207Z,14.23
2024-02-27T21:26:49.162Z,14.73
2024-02-27T21:29:16.891Z,16.80
2024-02-27T21:31:45.101Z,16.35
2024-02-27T21:34:12.932Z,17.33
2024-02-27T21:36:42.051Z,18.83
2024-02-27T21:39:09.877Z,14.00
2024-02-27T21:41:37.692Z,16.73
2024-02-27T21:44:06.168Z,15.45
2024-02-27T21:46:34.044Z,14.90
2024-02-27T21:49:02.080Z,15.55
2024-02-27T21:51:30.009Z,17.88
2024-02-27T21:53:59.737Z,17.30
2024-02-27T21:56:27.787Z,19.65
2024-02-27T21:58:55.826Z,16.63
2024-02-27T22:01:24.801Z,17.13
2024-02-27T22:03:52.932Z,17.27
2024-02-27T22:06:21.217Z,17.27
2024-02-27T22:08:49.061Z,17.33
2024-02-27T22:11:18.539Z,17.17
2024-02-27T22:13:46.378Z,17.48
2024-02-27T22:16:14.153Z,18.75
2024-02-27T22:18:42.035Z,17.77
2024-02-27T22:21:09.975Z,18.95
2024-02-27T22:23:37.836Z,19.30
2024-02-27T22:26:05.771Z,17.10
2024-02-27T22:28:35.011Z,17.73
2024-02-27T22:31:03.334Z,21.80
2024-02-27T22:33:31.466Z,20.38
2024-02-27T22:36:01.573Z,19.60
2024-02-27T22:38:29.396Z,16.15
2024-02-27T22:40:57.262Z,20.60
2024-02-27T22:43:25.109Z,17.17
2024-02-27T22:45:54.267Z,17.40
2024-02-27T22:48:22.589Z,19.08
2024-02-27T22:50:50.671Z,19.58
2024-02-27T22:53:18.719Z,17.27
2024-02-27T22:55:46.581Z,17.97
2024-02-27T22:58:15.176Z,17.67
2024-02-27T23:00:43.100Z,17.15
2024-02-27T23:03:14.704Z,17.98
2024-02-27T23:05:42.566Z,16.70
2024-02-27T23:08:10.357Z,18.53
2024-02-27T23:10:38.177Z,18.05
2024-02-27T23:13:08.108Z,17.58
2024-02-27T23:15:38.765Z,16.92
2024-02-27T23:18:08.151Z,17.60
2024-02-27T23:20:40.213Z,16.73
2024-02-27T23:23:08.187Z,14.38
2024-02-27T23:25:36.602Z,15.32
2024-02-27T23:28:04.734Z,17.02
2024-02-27T23:30:32.694Z,19.88
2024-02-27T23:33:00.677Z,16.50
2024-02-27T23:35:28.429Z,17.35
2024-02-27T23:37:57.729Z,18.58
2024-02-27T23:40:32.121Z,17.77
2024-02-27T23:43:00.257Z,17.05
2024-02-27T23:45:30.166Z,18.47
2024-02-27T23:47:58.396Z,19.95
2024-02-27T23:50:26.485Z,20.08
2024-02-27T23:52:54.436Z,19.50
2024-02-27T23:55:23.960Z,19.17
2024-02-27T23:57:52.042Z,16.70
